Time;durP1;ratioP1;P1;durP2;ratioP2;P2;SDS_P1;SDS_P2;PMS_P1;PMS_P2;Temp;Humidity;BMP_temperature;BMP_pressure;BME280_temperature;BME280_humidity;BME280_pressure;Samples;Min_cycle;Max_cycle;Signal;HPM_P1;HPM_P2
2022/02/26 00:02:17;;;;;;;7.72;3.20;;;;;;;;;;20997641;28;20052;-66
2022/02/26 00:12:19;;;;;;;8.43;3.50;;;;;;;;;;20996097;28;20056;-65
2022/02/26 00:22:22;;;;;;;6.10;3.30;;;;;;;;;;20996805;28;20127;-68
2022/02/26 00:32:24;;;;;;;7.55;3.22;;;;;;;;;;20996102;28;20405;-61
2022/02/26 00:42:26;;;;;;;4.72;2.90;;;;;;;;;;20996141;28;20068;-71
2022/02/26 00:52:30;;;;;;;6.95;3.00;;;;;;;;;;20995442;28;20137;-62
2022/02/26 01:02:32;;;;;;;6.30;3.00;;;;;;;;;;20994945;28;20045;-71
2022/02/26 01:12:34;;;;;;;6.22;2.70;;;;;;;;;;20994320;28;20048;-69
2022/02/26 01:22:36;;;;;;;5.80;2.60;;;;;;;;;;21003919;28;20052;-71
2022/02/26 01:32:41;;;;;;;5.10;2.70;;;;;;;;;;21008787;28;20048;-71
2022/02/26 01:42:43;;;;;;;6.23;2.73;;;;;;;;;;21007032;28;20133;-66
2022/02/26 01:52:45;;;;;;;4.85;3.35;;;;;;;;;;21007704;28;20480;-70
2022/02/26 02:02:49;;;;;;;5.95;3.40;;;;;;;;;;21005169;28;20045;-71
2022/02/26 02:12:51;;;;;;;5.40;3.00;;;;;;;;;;21005141;28;20069;-69
2022/02/26 02:22:54;;;;;;;5.10;3.33;;;;;;;;;;21006220;28;20052;-59
2022/02/26 02:32:57;;;;;;;7.70;3.75;;;;;;;;;;21006005;28;20048;-71
2022/02/26 02:43:01;;;;;;;6.05;2.95;;;;;;;;;;21003793;28;20049;-69
2022/02/26 02:53:09;;;;;;;4.30;2.95;;;;;;;;;;21003084;28;20048;-66
2022/02/26 03:03:15;;;;;;;6.25;3.55;;;;;;;;;;21003144;28;20056;-59
2022/02/26 03:13:20;;;;;;;6.90;3.10;;;;;;;;;;21000342;28;20489;-67
2022/02/26 03:23:23;;;;;;;7.47;3.30;;;;;;;;;;21000600;28;20048;-66
2022/02/26 03:33:43;;;;;;;5.25;3.03;;;;;;;;;;20999843;28;20049;-61
2022/02/26 03:43:51;;;;;;;5.95;3.25;;;;;;;;;;20998722;28;20048;-70
2022/02/26 03:53:52;;;;;;;7.20;4.47;;;;;;;;;;21000358;28;20400;-59
2022/02/26 04:03:56;;;;;;;7.68;3.88;;;;;;;;;;20999291;28;20090;-70
2022/02/26 04:13:59;;;;;;;7.70;3.63;;;;;;;;;;20997902;28;20493;-71
2022/02/26 04:24:05;;;;;;;6.03;3.35;;;;;;;;;;20998155;28;20055;-69
2022/02/26 04:34:07;;;;;;;8.82;4.53;;;;;;;;;;20996793;28;20052;-70
2022/02/26 04:44:10;;;;;;;7.13;3.42;;;;;;;;;;20996280;28;20049;-67
2022/02/26 04:54:16;;;;;;;6.47;3.60;;;;;;;;;;20999393;28;20058;-69
2022/02/26 05:04:18;;;;;;;4.97;3.30;;;;;;;;;;21009965;28;20040;-69
2022/02/26 05:14:20;;;;;;;6.22;3.20;;;;;;;;;;21009628;28;20083;-69
2022/02/26 05:24:22;;;;;;;5.03;2.85;;;;;;;;;;21011492;28;20041;-69
2022/02/26 05:34:24;;;;;;;5.65;2.80;;;;;;;;;;21008384;28;20053;-69
2022/02/26 05:44:26;;;;;;;6.38;2.60;;;;;;;;;;21008300;28;20405;-71
2022/02/26 05:54:28;;;;;;;4.72;2.33;;;;;;;;;;21005764;28;20056;-62
2022/02/26 06:04:31;;;;;;;4.63;2.50;;;;;;;;;;21005732;28;20412;-62
2022/02/26 06:14:34;;;;;;;6.55;3.28;;;;;;;;;;21004321;28;20057;-68
2022/02/26 06:24:36;;;;;;;7.40;3.15;;;;;;;;;;21004954;28;20464;-69
2022/02/26 06:34:38;;;;;;;7.32;3.03;;;;;;;;;;21003777;28;20084;-70
2022/02/26 06:44:40;;;;;;;8.65;2.75;;;;;;;;;;21003256;28;20044;-58
2022/02/26 06:54:42;;;;;;;5.45;3.08;;;;;;;;;;21002453;28;20408;-65
2022/02/26 07:04:44;;;;;;;6.82;2.45;;;;;;;;;;21001362;28;20419;-67
2022/02/26 07:14:46;;;;;;;7.05;3.05;;;;;;;;;;20998261;28;20057;-70
2022/02/26 07:24:48;;;;;;;5.03;2.60;;;;;;;;;;20999835;28;20481;-67
2022/02/26 07:34:50;;;;;;;5.72;2.88;;;;;;;;;;20998586;28;20114;-65
2022/02/26 07:44:53;;;;;;;7.05;3.40;;;;;;;;;;20998171;28;20401;-69
2022/02/26 07:54:55;;;;;;;6.20;2.90;;;;;;;;;;20998216;28;20449;-66
2022/02/26 08:04:57;;;;;;;5.78;3.30;;;;;;;;;;20997348;28;20049;-58
2022/02/26 08:14:59;;;;;;;10.55;3.65;;;;;;;;;;20996364;28;20052;-60
2022/02/26 08:25:01;;;;;;;6.88;3.53;;;;;;;;;;20996838;28;20051;-68
2022/02/26 08:35:04;;;;;;;9.48;3.50;;;;;;;;;;21011036;28;20048;-59
2022/02/26 08:45:07;;;;;;;8.98;4.00;;;;;;;;;;21011632;28;20334;-59
2022/02/26 08:55:09;;;;;;;8.63;3.42;;;;;;;;;;21011926;28;20519;-59
2022/02/26 09:05:11;;;;;;;5.95;3.22;;;;;;;;;;21010985;28;20123;-67
2022/02/26 09:15:14;;;;;;;6.55;3.42;;;;;;;;;;21008493;28;20057;-65
2022/02/26 09:25:16;;;;;;;7.35;3.15;;;;;;;;;;21008217;28;20059;-65
2022/02/26 09:35:18;;;;;;;11.02;3.40;;;;;;;;;;21005153;28;20369;-60
2022/02/26 09:45:20;;;;;;;7.95;3.33;;;;;;;;;;21006556;28;20088;-58
2022/02/26 09:55:22;;;;;;;8.95;3.38;;;;;;;;;;21005285;28;20139;-65
2022/02/26 10:05:25;;;;;;;12.45;4.25;;;;;;;;;;21005672;28;20076;-65
2022/02/26 10:15:29;;;;;;;6.40;3.25;;;;;;;;;;21004403;28;20060;-65
2022/02/26 10:25:32;;;;;;;12.23;6.97;;;;;;;;;;21003248;28;20049;-66
2022/02/26 10:35:39;;;;;;;6.72;3.42;;;;;;;;;;21003273;28;20063;-68
2022/02/26 10:45:41;;;;;;;11.02;3.42;;;;;;;;;;21002881;28;20051;-67
2022/02/26 10:55:53;;;;;;;9.65;3.75;;;;;;;;;;21001104;28;20052;-66
2022/02/26 11:05:55;;;;;;;12.77;4.90;;;;;;;;;;21000761;28;20044;-62
2022/02/26 11:15:58;;;;;;;9.98;5.65;;;;;;;;;;20998397;28;20459;-65
2022/02/26 11:26:01;;;;;;;10.90;3.95;;;;;;;;;;20998463;28;20051;-67
2022/02/26 11:36:04;;;;;;;8.60;3.88;;;;;;;;;;20996603;28;20087;-62
2022/02/26 11:46:24;;;;;;;5.95;3.60;;;;;;;;;;20996860;28;20068;-66
2022/02/26 11:56:40;;;;;;;8.45;4.10;;;;;;;;;;20995459;28;20079;-65
2022/02/26 12:06:41;;;;;;;9.13;3.92;;;;;;;;;;20995788;28;20106;-65
2022/02/26 12:16:43;;;;;;;6.38;4.35;;;;;;;;;;20995385;28;20148;-69
2022/02/26 12:26:59;;;;;;;8.95;4.40;;;;;;;;;;20994055;28;20049;-68
2022/02/26 12:37:07;;;;;;;7.43;4.25;;;;;;;;;;21003946;28;20126;-67
2022/02/26 12:47:10;;;;;;;8.45;3.80;;;;;;;;;;20994771;28;20059;-67
2022/02/26 12:57:12;;;;;;;6.45;3.92;;;;;;;;;;20995242;28;20058;-65
2022/02/26 13:07:15;;;;;;;11.23;5.25;;;;;;;;;;20991952;28;20079;-57
2022/02/26 13:17:18;;;;;;;14.13;6.82;;;;;;;;;;20999985;28;20512;-64
2022/02/26 13:27:22;;;;;;;9.80;4.70;;;;;;;;;;21005610;28;20481;-59
2022/02/26 13:37:28;;;;;;;14.00;6.10;;;;;;;;;;21007739;28;20052;-58
2022/02/26 13:47:31;;;;;;;14.52;6.22;;;;;;;;;;21007164;28;20072;-65
2022/02/26 13:57:34;;;;;;;14.93;7.82;;;;;;;;;;21006972;28;20060;-65
2022/02/26 14:07:38;;;;;;;10.15;5.00;;;;;;;;;;21005830;28;20040;-67
2022/02/26 14:17:42;;;;;;;9.07;4.57;;;;;;;;;;21004153;28;20072;-68
2022/02/26 14:27:47;;;;;;;7.70;3.35;;;;;;;;;;21003746;28;20083;-67
2022/02/26 14:37:49;;;;;;;7.47;3.80;;;;;;;;;;21002811;28;20052;-66
2022/02/26 14:47:51;;;;;;;6.72;2.88;;;;;;;;;;21001871;28;20092;-65
2022/02/26 14:57:52;;;;;;;8.02;4.18;;;;;;;;;;21001081;28;20052;-62
2022/02/26 15:07:53;;;;;;;9.38;3.50;;;;;;;;;;21000507;28;20507;-63
2022/02/26 15:17:55;;;;;;;6.57;3.85;;;;;;;;;;20998047;28;20056;-66
2022/02/26 15:27:56;;;;;;;5.82;2.65;;;;;;;;;;20997860;28;20412;-67
2022/02/26 15:37:57;;;;;;;8.52;3.28;;;;;;;;;;20997915;28;20129;-67
2022/02/26 15:47:58;;;;;;;5.75;3.03;;;;;;;;;;20997730;28;20109;-68
2022/02/26 15:57:59;;;;;;;6.03;2.53;;;;;;;;;;20997875;28;20068;-64
2022/02/26 16:08:01;;;;;;;9.43;2.70;;;;;;;;;;20995871;28;20505;-64
2022/02/26 16:18:02;;;;;;;5.80;3.45;;;;;;;;;;20995538;28;20053;-68
2022/02/26 16:28:03;;;;;;;4.28;2.47;;;;;;;;;;20996582;28;20488;-64
2022/02/26 16:38:04;;;;;;;6.63;3.00;;;;;;;;;;20994246;28;20555;-59
2022/02/26 16:48:06;;;;;;;6.18;2.95;;;;;;;;;;20997853;28;20508;-67
2022/02/26 16:58:08;;;;;;;9.43;2.80;;;;;;;;;;21009923;28;20078;-63
2022/02/26 17:08:10;;;;;;;7.10;3.67;;;;;;;;;;21010450;28;20044;-65
2022/02/26 17:18:13;;;;;;;8.50;4.35;;;;;;;;;;21008503;28;20131;-61
2022/02/26 17:28:16;;;;;;;7.00;3.80;;;;;;;;;;21008482;28;20120;-62
2022/02/26 17:38:18;;;;;;;4.05;2.90;;;;;;;;;;21007919;28;20052;-61
2022/02/26 17:48:20;;;;;;;8.25;2.67;;;;;;;;;;21007629;28;20405;-60
2022/02/26 17:58:22;;;;;;;4.57;1.90;;;;;;;;;;21006351;28;20053;-67
2022/02/26 18:08:24;;;;;;;3.65;2.40;;;;;;;;;;21005268;28;20040;-65
2022/02/26 18:18:26;;;;;;;3.63;2.17;;;;;;;;;;21003724;28;20416;-67
2022/02/26 18:28:29;;;;;;;3.60;2.63;;;;;;;;;;21006582;28;20045;-68
2022/02/26 18:38:30;;;;;;;5.95;3.10;;;;;;;;;;21003955;28;20109;-70
2022/02/26 18:48:33;;;;;;;5.43;3.35;;;;;;;;;;21002633;28;20049;-67
2022/02/26 18:58:34;;;;;;;7.10;4.75;;;;;;;;;;21002664;28;20059;-69
2022/02/26 19:08:37;;;;;;;7.43;3.60;;;;;;;;;;20999936;28;20044;-61
2022/02/26 19:18:39;;;;;;;8.82;4.85;;;;;;;;;;20997712;28;20066;-59
2022/02/26 19:28:41;;;;;;;9.15;3.85;;;;;;;;;;20999056;28;20046;-61
2022/02/26 19:38:43;;;;;;;7.05;5.43;;;;;;;;;;20999020;28;20598;-58
2022/02/26 19:48:45;;;;;;;15.00;7.35;;;;;;;;;;20998751;28;20052;-58
2022/02/26 19:58:47;;;;;;;7.28;4.00;;;;;;;;;;20997597;28;20512;-59
2022/02/26 20:08:49;;;;;;;8.60;3.65;;;;;;;;;;20997160;28;20055;-61
2022/02/26 20:18:51;;;;;;;11.80;4.20;;;;;;;;;;20996446;28;20067;-66
2022/02/26 20:28:53;;;;;;;10.50;5.03;;;;;;;;;;20995422;28;20105;-66
2022/02/26 20:38:55;;;;;;;11.30;4.78;;;;;;;;;;20995533;28;20118;-69
2022/02/26 20:48:58;;;;;;;9.15;4.57;;;;;;;;;;20995291;28;20045;-66
2022/02/26 20:59:00;;;;;;;14.15;5.13;;;;;;;;;;20997477;28;20056;-69
2022/02/26 21:09:02;;;;;;;9.18;5.35;;;;;;;;;;20995145;28;20098;-71
2022/02/26 21:19:04;;;;;;;9.63;5.28;;;;;;;;;;20993292;28;20049;-70
2022/02/26 21:29:09;;;;;;;10.68;5.95;;;;;;;;;;20993480;28;20362;-62
2022/02/26 21:39:12;;;;;;;12.18;6.40;;;;;;;;;;21001292;28;20071;-59
2022/02/26 21:49:14;;;;;;;14.35;5.70;;;;;;;;;;21007640;28;20052;-64
2022/02/26 21:59:16;;;;;;;12.77;5.78;;;;;;;;;;21007182;28;20044;-68
2022/02/26 22:09:18;;;;;;;11.02;5.78;;;;;;;;;;21006244;28;20107;-63
2022/02/26 22:19:20;;;;;;;11.85;5.60;;;;;;;;;;21005393;28;20109;-70
2022/02/26 22:29:23;;;;;;;15.30;6.20;;;;;;;;;;21003076;28;20063;-66
2022/02/26 22:39:26;;;;;;;11.50;5.18;;;;;;;;;;21004184;28;20131;-67
2022/02/26 22:49:28;;;;;;;15.43;5.25;;;;;;;;;;21003252;28;20045;-61
2022/02/26 22:59:30;;;;;;;11.77;6.22;;;;;;;;;;21002079;28;20056;-68
2022/02/26 23:09:32;;;;;;;10.60;4.97;;;;;;;;;;21000538;28;20061;-67
2022/02/26 23:19:34;;;;;;;14.52;5.28;;;;;;;;;;21000721;28;20097;-65
2022/02/26 23:29:36;;;;;;;10.43;4.80;;;;;;;;;;20997287;28;20063;-64
2022/02/26 23:39:38;;;;;;;10.40;5.05;;;;;;;;;;20999052;28;20044;-62
2022/02/26 23:49:39;;;;;;;11.35;5.28;;;;;;;;;;20998614;28;20135;-59
2022/02/26 23:59:42;;;;;;;15.90;5.00;;;;;;;;;;20997880;28;20493;-61
